createdAt,value
2022-12-16T00:01:18.608Z,-3.40
2022-12-16T00:03:52.234Z,-3.40
2022-12-16T00:06:26.244Z,-3.50
2022-12-16T00:08:53.648Z,-3.50
2022-12-16T00:11:21.969Z,-3.40
2022-12-16T00:13:48.994Z,-3.50
2022-12-16T00:16:19.131Z,-3.40
2022-12-16T00:18:47.366Z,-3.50
2022-12-16T00:21:14.819Z,-3.40
2022-12-16T00:23:42.047Z,-3.40
2022-12-16T00:26:09.973Z,-3.40
2022-12-16T00:28:38.607Z,-3.40
2022-12-16T00:31:06.523Z,-3.40
2022-12-16T00:33:34.138Z,-3.40
2022-12-16T00:36:01.717Z,-3.40
2022-12-16T00:38:28.947Z,-3.40
2022-12-16T00:40:56.563Z,-3.40
2022-12-16T00:43:23.500Z,-3.30
2022-12-16T00:45:51.926Z,-3.30
2022-12-16T00:48:23.070Z,-3.30
2022-12-16T00:50:52.320Z,-3.30
2022-12-16T00:53:24.477Z,-3.40
2022-12-16T00:56:08.370Z,-3.30
2022-12-16T00:58:36.187Z,-3.30
2022-12-16T01:01:04.339Z,-3.40
2022-12-16T01:03:31.735Z,-3.40
2022-12-16T01:05:58.959Z,-3.40
2022-12-16T01:08:26.599Z,-3.40
2022-12-16T01:10:56.485Z,-3.40
2022-12-16T01:13:26.051Z,-3.40
2022-12-16T01:15:53.037Z,-3.40
2022-12-16T01:18:20.587Z,-3.50
2022-12-16T01:20:47.836Z,-3.50
2022-12-16T01:23:14.845Z,-3.50
2022-12-16T01:25:41.917Z,-3.50
2022-12-16T01:28:09.424Z,-3.50
2022-12-16T01:30:36.569Z,-3.50
2022-12-16T01:33:03.794Z,-3.60
2022-12-16T01:35:59.816Z,-3.60
2022-12-16T01:38:18.379Z,-3.60
2022-12-16T01:40:45.467Z,-3.60
2022-12-16T01:43:14.595Z,-3.60
2022-12-16T01:45:41.635Z,-3.60
2022-12-16T01:48:35.060Z,-3.70
2022-12-16T01:51:09.568Z,-3.70
2022-12-16T01:53:39.852Z,-3.70
2022-12-16T01:56:07.465Z,-3.70
2022-12-16T01:58:37.258Z,-3.80
2022-12-16T02:01:05.733Z,-3.80
2022-12-16T02:03:36.965Z,-3.80
2022-12-16T02:06:06.958Z,-3.80
2022-12-16T02:08:34.620Z,-3.80
2022-12-16T02:11:29.060Z,-3.80
2022-12-16T02:14:21.207Z,-3.80
2022-12-16T02:16:55.605Z,-3.80
2022-12-16T02:19:56.194Z,-3.90
2022-12-16T02:22:52.312Z,-3.90
2022-12-16T02:25:42.049Z,-3.90
2022-12-16T02:28:30.215Z,-3.90
2022-12-16T02:31:26.953Z,-3.90
2022-12-16T02:34:30.291Z,-4.00
2022-12-16T02:37:21.385Z,-3.90
2022-12-16T02:40:01.416Z,-4.00
2022-12-16T02:42:40.246Z,-4.00
2022-12-16T02:45:24.366Z,-4.00
2022-12-16T02:47:51.691Z,-4.00
2022-12-16T02:50:27.094Z,-4.00
2022-12-16T02:52:56.181Z,-4.10
2022-12-16T02:55:36.796Z,-4.00
2022-12-16T02:58:28.866Z,-4.10
2022-12-16T03:01:05.287Z,-4.10
2022-12-16T03:04:16.404Z,-4.00
2022-12-16T03:06:48.103Z,-4.10
2022-12-16T03:09:21.538Z,-4.00
2022-12-16T03:11:49.552Z,-4.10
2022-12-16T03:14:19.322Z,-4.00
2022-12-16T03:16:48.211Z,-4.10
2022-12-16T03:19:15.433Z,-4.10
2022-12-16T03:22:12.793Z,-4.10
2022-12-16T03:24:41.037Z,-4.10
2022-12-16T03:27:24.296Z,-4.10
2022-12-16T03:30:09.303Z,-4.10
2022-12-16T03:32:41.747Z,-4.10
2022-12-16T03:35:27.097Z,-4.10
2022-12-16T03:37:57.728Z,-4.10
2022-12-16T03:40:27.395Z,-4.10
2022-12-16T03:42:57.153Z,-4.10
2022-12-16T03:45:31.364Z,-4.10
2022-12-16T03:48:00.267Z,-4.10
2022-12-16T03:50:32.616Z,-4.10
2022-12-16T03:52:59.863Z,-4.10
2022-12-16T03:55:27.761Z,-4.10
2022-12-16T03:57:54.662Z,-4.10
2022-12-16T04:00:22.075Z,-4.10
2022-12-16T04:02:49.771Z,-4.10
2022-12-16T04:05:17.077Z,-4.10
2022-12-16T04:07:44.183Z,-4.10
2022-12-16T04:10:11.953Z,-4.10
2022-12-16T04:12:57.547Z,-4.10
2022-12-16T04:15:43.600Z,-4.10
2022-12-16T04:18:37.923Z,-4.10
2022-12-16T04:21:23.864Z,-4.10
2022-12-16T04:24:14.034Z,-4.10
2022-12-16T04:26:59.938Z,-4.10
2022-12-16T04:29:26.891Z,-4.10
2022-12-16T04:31:54.007Z,-4.10
2022-12-16T04:34:29.393Z,-4.10
2022-12-16T04:37:20.669Z,-4.10
2022-12-16T04:40:06.731Z,-4.10
2022-12-16T04:42:52.272Z,-4.10
2022-12-16T04:45:37.672Z,-4.10
2022-12-16T04:48:23.807Z,-4.00
2022-12-16T04:51:09.118Z,-4.00
2022-12-16T04:53:54.716Z,-4.00
2022-12-16T04:56:40.230Z,-4.10
2022-12-16T04:59:25.424Z,-4.00
2022-12-16T05:02:11.122Z,-4.00
2022-12-16T05:04:56.540Z,-4.00
2022-12-16T05:07:41.988Z,-4.10
2022-12-16T05:10:28.051Z,-4.10
2022-12-16T05:13:14.371Z,-4.10
2022-12-16T05:16:00.081Z,-4.10
2022-12-16T05:18:45.419Z,-4.10
2022-12-16T05:21:31.020Z,-4.00
2022-12-16T05:24:16.918Z,-4.10
2022-12-16T05:27:02.151Z,-4.10
2022-12-16T05:29:47.577Z,-4.10
2022-12-16T05:32:33.752Z,-4.10
2022-12-16T05:35:20.976Z,-4.10
2022-12-16T05:38:06.975Z,-4.10
2022-12-16T05:40:52.611Z,-4.10
2022-12-16T05:43:37.941Z,-4.10
2022-12-16T05:46:23.775Z,-4.10
2022-12-16T05:49:09.905Z,-4.10
2022-12-16T05:51:55.392Z,-4.10
2022-12-16T05:54:41.024Z,-4.10
2022-12-16T05:57:26.578Z,-4.00
2022-12-16T06:00:12.194Z,-4.00
2022-12-16T06:02:58.145Z,-3.90
2022-12-16T06:05:44.392Z,-3.90
2022-12-16T06:08:29.937Z,-3.90
2022-12-16T06:11:15.591Z,-3.90
2022-12-16T06:14:01.432Z,-3.80
2022-12-16T06:16:46.732Z,-3.80
2022-12-16T06:19:32.853Z,-3.80
2022-12-16T06:22:18.517Z,-3.80
2022-12-16T06:25:03.878Z,-3.80
2022-12-16T06:27:49.649Z,-3.80
2022-12-16T06:30:35.551Z,-3.80
2022-12-16T06:33:20.790Z,-3.80
2022-12-16T06:36:06.305Z,-3.80
2022-12-16T06:38:51.835Z,-3.70
2022-12-16T06:41:37.483Z,-3.70
2022-12-16T06:44:23.225Z,-3.70
2022-12-16T06:47:19.125Z,-3.70
2022-12-16T06:50:04.986Z,-3.70
2022-12-16T06:52:55.167Z,-3.70
2022-12-16T06:55:41.241Z,-3.70
2022-12-16T06:58:26.716Z,-3.70
2022-12-16T07:01:11.912Z,-3.70
2022-12-16T07:03:57.522Z,-3.60
2022-12-16T07:06:42.695Z,-3.60
2022-12-16T07:09:28.798Z,-3.60
2022-12-16T07:12:14.490Z,-3.60
2022-12-16T07:14:59.872Z,-3.60
2022-12-16T07:17:45.277Z,-3.60
2022-12-16T07:20:31.387Z,-3.60
2022-12-16T07:23:19.808Z,-3.60
2022-12-16T07:26:15.775Z,-3.60
2022-12-16T07:29:17.812Z,-3.60
2022-12-16T07:32:04.082Z,-3.50
2022-12-16T07:34:50.423Z,-3.50
2022-12-16T07:37:36.636Z,-3.50
2022-12-16T07:40:27.643Z,-3.40
2022-12-16T07:43:13.385Z,-3.40
2022-12-16T07:45:59.257Z,-3.30
2022-12-16T07:48:44.994Z,-3.20
2022-12-16T07:51:30.606Z,-3.20
2022-12-16T07:54:16.308Z,-3.10
2022-12-16T07:57:02.157Z,-3.00
2022-12-16T07:59:47.288Z,-2.90
2022-12-16T08:02:33.123Z,-2.90
2022-12-16T08:05:18.774Z,-2.80
2022-12-16T08:08:04.714Z,-2.70
2022-12-16T08:10:50.329Z,-2.60
2022-12-16T08:13:36.669Z,-2.60
2022-12-16T08:16:22.668Z,-2.50
2022-12-16T08:19:11.261Z,-2.40
2022-12-16T08:21:57.487Z,-2.30
2022-12-16T08:24:46.816Z,-2.30
2022-12-16T08:27:36.768Z,-2.20
2022-12-16T08:30:22.761Z,-2.10
2022-12-16T08:36:17.353Z,-1.80
2022-12-16T08:39:03.946Z,-1.50
2022-12-16T08:41:50.122Z,-1.20
2022-12-16T08:44:37.228Z,-0.80
2022-12-16T08:47:23.348Z,-0.30
2022-12-16T08:50:09.332Z,0.20
2022-12-16T08:52:54.813Z,0.70
2022-12-16T08:55:40.677Z,1.20
2022-12-16T08:58:26.808Z,1.70
2022-12-16T09:01:14.005Z,2.20
2022-12-16T09:04:07.940Z,2.80
2022-12-16T09:06:54.767Z,3.20
2022-12-16T09:09:42.880Z,3.70
2022-12-16T09:12:29.665Z,4.20
2022-12-16T09:15:15.705Z,4.70
2022-12-16T09:18:01.594Z,5.20
2022-12-16T09:20:47.394Z,5.70
2022-12-16T09:23:35.009Z,6.30
2022-12-16T09:26:21.198Z,6.90
2022-12-16T09:29:07.725Z,7.60
2022-12-16T09:31:54.231Z,8.20
2022-12-16T09:34:42.034Z,8.80
2022-12-16T09:37:27.988Z,9.20
2022-12-16T09:40:14.499Z,9.30
2022-12-16T09:43:10.249Z,9.40
2022-12-16T09:46:39.420Z,9.30
2022-12-16T09:49:48.932Z,9.20
2022-12-16T09:52:40.514Z,9.20
2022-12-16T09:55:45.619Z,9.20
2022-12-16T09:58:34.102Z,9.30
2022-12-16T10:01:21.718Z,9.30
2022-12-16T10:04:09.129Z,9.30
2022-12-16T10:07:04.992Z,9.40
2022-12-16T10:10:14.017Z,9.50
2022-12-16T10:13:24.583Z,9.70
2022-12-16T10:16:16.705Z,9.80
2022-12-16T10:19:14.531Z,9.90
2022-12-16T10:22:31.387Z,10.00
2022-12-16T10:25:36.209Z,10.20
2022-12-16T10:29:05.577Z,10.50
2022-12-16T10:31:53.393Z,10.70
2022-12-16T10:34:48.513Z,11.00
2022-12-16T10:37:46.678Z,11.10
2022-12-16T10:40:38.905Z,11.20
2022-12-16T10:43:37.898Z,11.40
2022-12-16T10:46:38.135Z,11.50
2022-12-16T10:49:24.485Z,11.60
2022-12-16T10:52:10.326Z,11.70
2022-12-16T10:55:06.050Z,11.70
2022-12-16T10:58:35.879Z,11.80
2022-12-16T11:01:41.691Z,11.80
2022-12-16T11:04:50.603Z,11.80
2022-12-16T11:08:04.024Z,11.70
2022-12-16T11:10:56.166Z,11.60
2022-12-16T11:13:43.659Z,11.50
2022-12-16T11:16:47.179Z,11.40
2022-12-16T11:19:44.335Z,11.10
2022-12-16T11:22:39.849Z,10.90
2022-12-16T11:25:37.053Z,10.70
2022-12-16T11:28:36.223Z,10.50
2022-12-16T11:31:32.639Z,10.30
2022-12-16T11:34:21.694Z,10.10
2022-12-16T11:37:11.074Z,10.00
2022-12-16T11:39:58.792Z,9.80
2022-12-16T11:42:51.028Z,9.70
2022-12-16T11:45:39.609Z,9.50
2022-12-16T11:48:58.458Z,9.50
2022-12-16T11:51:49.775Z,9.30
2022-12-16T11:54:49.691Z,9.20
2022-12-16T11:57:50.937Z,9.10
2022-12-16T12:00:39.048Z,9.00
2022-12-16T12:03:42.235Z,8.90
2022-12-16T12:07:27.368Z,8.80
2022-12-16T12:10:51.812Z,8.80
2022-12-16T12:14:03.479Z,8.80
2022-12-16T12:17:01.430Z,8.80
2022-12-16T12:20:06.118Z,8.80
2022-12-16T12:22:56.444Z,8.80
2022-12-16T12:26:26.511Z,8.70
2022-12-16T12:29:27.029Z,8.70
2022-12-16T12:32:34.139Z,8.70
2022-12-16T12:35:41.983Z,8.70
2022-12-16T12:38:40.890Z,8.60
2022-12-16T12:42:29.070Z,8.50
2022-12-16T12:45:41.201Z,8.50
2022-12-16T12:48:41.266Z,8.40
2022-12-16T12:51:49.854Z,8.30
2022-12-16T12:55:21.161Z,8.20
2022-12-16T12:58:09.412Z,8.10
2022-12-16T13:01:09.403Z,8.00
2022-12-16T13:04:00.842Z,7.90
2022-12-16T13:06:46.872Z,7.80
2022-12-16T13:09:53.852Z,7.70
2022-12-16T13:12:51.745Z,7.60
2022-12-16T13:15:52.061Z,7.50
2022-12-16T13:18:57.884Z,7.40
2022-12-16T13:21:56.312Z,7.30
2022-12-16T13:24:45.352Z,7.20
2022-12-16T13:27:33.639Z,7.10
2022-12-16T13:30:30.261Z,7.00
2022-12-16T13:33:26.160Z,6.90
2022-12-16T13:36:17.311Z,6.80
2022-12-16T13:39:09.394Z,6.80
2022-12-16T13:41:54.669Z,6.60
2022-12-16T13:45:02.454Z,6.70
2022-12-16T13:48:13.973Z,6.40
2022-12-16T13:51:07.845Z,6.40
2022-12-16T13:54:02.937Z,6.30
2022-12-16T13:57:02.765Z,6.20
2022-12-16T13:59:51.063Z,6.10
2022-12-16T14:02:50.391Z,6.10
2022-12-16T14:06:01.364Z,5.90
2022-12-16T14:08:51.775Z,5.90
2022-12-16T14:12:19.682Z,5.80
2022-12-16T14:15:39.331Z,5.70
2022-12-16T14:18:30.916Z,5.70
2022-12-16T14:21:21.660Z,5.60
2022-12-16T14:24:19.698Z,5.70
2022-12-16T14:27:05.152Z,5.50
2022-12-16T14:29:51.675Z,5.60
2022-12-16T14:32:52.961Z,5.40
2022-12-16T14:35:42.784Z,5.30
2022-12-16T14:38:55.016Z,5.20
2022-12-16T14:41:43.012Z,5.20
2022-12-16T14:44:42.146Z,5.10
2022-12-16T14:47:40.510Z,5.00
2022-12-16T14:50:48.126Z,5.00
2022-12-16T14:53:41.795Z,4.90
2022-12-16T14:56:40.995Z,4.80
2022-12-16T14:59:38.416Z,4.80
2022-12-16T15:02:46.627Z,4.80
2022-12-16T15:05:36.496Z,4.70
2022-12-16T15:08:22.036Z,4.70
2022-12-16T15:11:09.483Z,4.60
2022-12-16T15:13:59.014Z,4.60
2022-12-16T15:16:54.272Z,4.60
2022-12-16T15:19:43.621Z,4.60
2022-12-16T15:22:34.232Z,4.50
2022-12-16T15:25:20.805Z,4.50
2022-12-16T15:28:15.601Z,4.40
2022-12-16T15:31:05.016Z,4.40
2022-12-16T15:33:54.538Z,4.50
2022-12-16T15:36:49.226Z,4.30
2022-12-16T15:39:48.337Z,4.30
2022-12-16T15:42:52.189Z,4.20
2022-12-16T15:45:46.201Z,4.20
2022-12-16T15:48:49.002Z,4.20
2022-12-16T15:52:02.070Z,4.10
2022-12-16T15:54:47.394Z,4.10
2022-12-16T15:57:49.828Z,4.10
2022-12-16T16:00:42.225Z,4.10
2022-12-16T16:03:46.215Z,4.00
2022-12-16T16:06:43.519Z,4.00
2022-12-16T16:09:47.387Z,4.00
2022-12-16T16:12:36.988Z,4.00
2022-12-16T16:15:25.819Z,4.00
2022-12-16T16:18:22.291Z,4.00
2022-12-16T16:21:09.823Z,3.90
2022-12-16T16:23:55.269Z,3.90
2022-12-16T16:26:45.575Z,3.90
2022-12-16T16:29:31.800Z,3.90
2022-12-16T16:32:17.299Z,3.90
2022-12-16T16:35:02.655Z,3.90
2022-12-16T16:37:48.235Z,3.80
2022-12-16T16:40:51.839Z,3.80
2022-12-16T16:43:37.653Z,3.80
2022-12-16T16:46:54.258Z,3.80
2022-12-16T16:49:56.786Z,3.80
2022-12-16T16:52:44.860Z,3.80
2022-12-16T16:55:42.955Z,3.80
2022-12-16T16:58:44.105Z,3.70
2022-12-16T17:01:35.117Z,3.70
2022-12-16T17:04:21.676Z,3.70
2022-12-16T17:07:07.589Z,3.70
2022-12-16T17:09:53.609Z,3.70
2022-12-16T17:12:45.778Z,3.70
2022-12-16T17:15:38.486Z,3.70
2022-12-16T17:18:24.753Z,3.70
2022-12-16T17:21:11.458Z,3.70
2022-12-16T17:23:57.909Z,3.70
2022-12-16T17:26:44.074Z,3.60
2022-12-16T17:29:42.109Z,3.60
2022-12-16T17:32:28.554Z,3.60
2022-12-16T17:35:14.453Z,3.60
2022-12-16T17:38:20.145Z,3.60
2022-12-16T17:41:11.616Z,3.60
2022-12-16T17:43:57.268Z,3.60
2022-12-16T17:46:43.025Z,3.60
2022-12-16T17:49:28.843Z,3.60
2022-12-16T17:52:14.377Z,3.60
2022-12-16T17:54:59.925Z,3.60
2022-12-16T17:57:45.309Z,3.60
2022-12-16T18:00:31.604Z,3.60
2022-12-16T18:03:17.090Z,3.60
2022-12-16T18:06:02.970Z,3.60
2022-12-16T18:08:51.082Z,3.60
2022-12-16T18:11:38.909Z,3.50
2022-12-16T18:14:24.493Z,3.50
2022-12-16T18:17:10.856Z,3.60
2022-12-16T18:19:56.426Z,3.50
2022-12-16T18:22:42.390Z,3.50
2022-12-16T18:25:27.763Z,3.50
2022-12-16T18:28:13.440Z,3.50
2022-12-16T18:30:59.089Z,3.50
2022-12-16T18:33:45.158Z,3.50
2022-12-16T18:36:30.838Z,3.50
2022-12-16T18:39:16.575Z,3.50
2022-12-16T18:42:04.448Z,3.50
2022-12-16T18:44:54.924Z,3.50
2022-12-16T18:47:43.584Z,3.50
2022-12-16T18:50:32.840Z,3.50
2022-12-16T18:53:23.582Z,3.40
2022-12-16T18:56:23.134Z,3.40
2022-12-16T18:59:08.642Z,3.40
2022-12-16T19:01:54.369Z,3.40
2022-12-16T19:04:40.072Z,3.40
2022-12-16T19:07:25.899Z,3.40
2022-12-16T19:10:11.457Z,3.40
2022-12-16T19:12:57.036Z,3.40
2022-12-16T19:15:42.747Z,3.40
2022-12-16T19:18:29.644Z,3.50
2022-12-16T19:21:16.176Z,3.40
2022-12-16T19:24:02.261Z,3.40
2022-12-16T19:26:47.732Z,3.40
2022-12-16T19:29:32.914Z,3.40
2022-12-16T19:32:18.548Z,3.40
2022-12-16T19:35:03.961Z,3.40
2022-12-16T19:37:49.300Z,3.40
2022-12-16T19:40:35.349Z,3.40
2022-12-16T19:43:20.797Z,3.40
2022-12-16T19:46:13.581Z,3.40
2022-12-16T19:49:00.005Z,3.40
2022-12-16T19:51:45.625Z,3.40
2022-12-16T19:54:30.984Z,3.40
2022-12-16T19:57:16.587Z,3.40
2022-12-16T20:00:03.628Z,3.50
2022-12-16T20:02:57.692Z,3.70
2022-12-16T20:05:43.555Z,3.50
2022-12-16T20:08:32.718Z,3.40
2022-12-16T20:11:25.026Z,3.40
2022-12-16T20:14:13.057Z,3.50
2022-12-16T20:17:01.333Z,3.50
2022-12-16T20:19:46.727Z,3.50
2022-12-16T20:22:31.992Z,3.50
2022-12-16T20:25:17.877Z,3.50
2022-12-16T20:28:03.288Z,3.50
2022-12-16T20:30:48.815Z,3.60
2022-12-16T20:33:34.783Z,3.60
2022-12-16T20:36:22.878Z,3.50
2022-12-16T20:39:08.212Z,3.60
2022-12-16T20:45:01.171Z,3.60
2022-12-16T20:47:46.662Z,3.60
2022-12-16T20:50:32.745Z,3.60
2022-12-16T20:53:18.131Z,3.60
2022-12-16T20:56:03.526Z,3.60
2022-12-16T20:58:48.999Z,3.60
2022-12-16T21:01:35.425Z,3.70
2022-12-16T21:04:22.778Z,3.60
2022-12-16T21:07:08.479Z,3.70
2022-12-16T21:09:55.278Z,3.70
2022-12-16T21:12:42.099Z,3.60
2022-12-16T21:15:27.902Z,3.60
2022-12-16T21:18:13.502Z,3.60
2022-12-16T21:20:59.207Z,3.60
2022-12-16T21:23:44.671Z,3.60
2022-12-16T21:26:50.078Z,3.60
2022-12-16T21:29:46.720Z,3.60
2022-12-16T21:32:32.329Z,3.60
2022-12-16T21:35:18.311Z,3.60
2022-12-16T21:38:03.740Z,3.60
2022-12-16T21:40:49.457Z,3.60
2022-12-16T21:43:35.431Z,3.70
2022-12-16T21:46:21.061Z,3.60
2022-12-16T21:49:06.991Z,3.70
2022-12-16T21:51:52.326Z,3.70
2022-12-16T21:54:42.039Z,3.60
2022-12-16T21:57:28.109Z,3.60
2022-12-16T22:00:13.761Z,3.60
2022-12-16T22:02:59.049Z,3.60
2022-12-16T22:05:44.758Z,3.60
2022-12-16T22:08:30.610Z,3.70
2022-12-16T22:11:16.073Z,3.70
2022-12-16T22:14:01.594Z,3.60
2022-12-16T22:16:47.501Z,3.60
2022-12-16T22:19:34.800Z,3.60
2022-12-16T22:22:20.449Z,3.70
2022-12-16T22:25:12.524Z,3.60
2022-12-16T22:28:00.017Z,3.60
2022-12-16T22:30:45.871Z,3.60
2022-12-16T22:33:32.031Z,3.60
2022-12-16T22:36:26.770Z,3.60
2022-12-16T22:39:12.333Z,3.60
2022-12-16T22:41:57.948Z,3.60
2022-12-16T22:44:43.554Z,3.60
2022-12-16T22:47:28.894Z,3.60
2022-12-16T22:50:14.476Z,3.50
2022-12-16T22:53:00.149Z,3.60
2022-12-16T22:55:45.682Z,3.50
2022-12-16T22:58:31.164Z,3.50
2022-12-16T23:01:16.504Z,3.50
2022-12-16T23:04:09.448Z,3.50
2022-12-16T23:06:56.188Z,3.50
2022-12-16T23:09:42.127Z,3.60
2022-12-16T23:12:27.710Z,3.50
2022-12-16T23:15:14.871Z,3.60
2022-12-16T23:18:00.089Z,3.50
2022-12-16T23:20:46.453Z,3.50
2022-12-16T23:23:32.880Z,3.50
2022-12-16T23:26:20.341Z,3.50
2022-12-16T23:29:11.542Z,3.70
2022-12-16T23:31:57.713Z,3.60
2022-12-16T23:34:45.968Z,3.50
2022-12-16T23:37:33.144Z,3.50
2022-12-16T23:40:29.997Z,3.60
2022-12-16T23:43:15.571Z,3.60
2022-12-16T23:46:02.607Z,3.60
2022-12-16T23:48:48.118Z,3.50
2022-12-16T23:51:33.582Z,3.60
2022-12-16T23:54:19.264Z,3.60
2022-12-16T23:57:04.755Z,3.60
2022-12-16T23:59:50.409Z,3.50
